YMAV/AVV METAR and TAF weather

Enter ICAO airport designator
Station Type Date Time Source
YMAV METAR 2021/07/29 01:30 UTC NOAA

YMAV 290130Z AUTO 29016KT 9999 // SCT032 14/08 Q1013 RF00.0/000.0


Station Type Date Time Source
YMAV Decoded METAR 2021/07/29 01:30 UTC NOAA

Avalon, Avalon Airport, Australia (YMAV) 38-02S 144-29E
Jul 28, 2021 - 09:30 PM EDT / 2021.07.29 0130 UTC
Wind: from the WNW (290 degrees) at 18 MPH (16 KT):0
Visibility: greater than 7 mile(s):0
Sky conditions: partly cloudy
Temperature: 57 F (14 C)
Dew Point: 46 F (8 C)
Relative Humidity: 67%
Pressure (altimeter): 29.91 in. Hg (1013 hPa)
ob: YMAV 290130Z AUTO 29016KT 9999 // SCT032 14/08 Q1013 RF00.0/000.0
cycle: 1

Station Type Date Time Source
YMAV TAF 2021/07/28 18:21 UTC NOAA

TAF
AMD TAF
AMD YMAV 281718Z 2818/2918 29016G26KT 9999 -SHRA SCT040
FM282100 29014KT 9999 NSW SCT030
FM290400 33012KT 9999 FEW040
FM291500 01014KT CAVOK

Example: see airport list